Marham, United Kingdom

1:23 PM BST on October 01, 2016 (GMT +0100)
Uplands | | Change Station

Elev 72 ft 52.69 °N, 0.59 °E | Updated 25 seconds ago

Overcast
Overcast
62.2 °F
Feels Like 62.2 °F
N
0.0
Wind Variable Wind from SW
Gusts 0.0 mph

Today
High -- | Low -- °F
--% Chance of Precip.
Yesterday
High -- | Low -- °F
Precip. -- in
Pressure 29.67 in
Visibility 3.1 miles
Clouds Few 200 ft
Overcast 2700 ft
Dew Point 39 °F
Humidity 42%
Rainfall 0.00 in
Snow Depth Not available.
6:59 AM 6:34 PM
New Moon, 0% visible
SPECI EGUL 011219Z AUTO 24006KT 5000 -RA FEW002 OVC027 13/09 A2967 RMK AO2 DZB1158E03RAB03 OVC V BKN
Pressure 29.67 in
Visibility 3.1 miles
Clouds Few 200 ft
Overcast 2700 ft
Dew Point 39 °F
Humidity 42%
Rainfall 0.00 in
Snow Depth Not available.
6:59 AM 6:34 PM
New Moon, 0% visible
SPECI EGUL 011219Z AUTO 24006KT 5000 -RA FEW002 OVC027 13/09 A2967 RMK AO2 DZB1158E03RAB03 OVC V BKN

10-Day Weather Forecast

×

Almanac

Astronomy

Oct. 01, 2016 Rise Set
Actual Time
Civil Twilight
Nautical Twilight
Astronomical Twilight
Moon
Length of Visible Light
Length of Day
Tomorrow will be .
, % of the Moon is Illuminated

Today's Extremes

Country Highs Country Lows

Community

WunderPhotos

Upload Photos

1,942,920 photos uploaded!

WunderBlog® & News

Nearby

Air Quality

  Air Quality AQ Index Pollutant
Not available.

Snow Depth

Station Depth Elevation

Earthquake Activity

City Distance Mag. Time & Date
Minimum magnitude displayed is 2.5.

Coastal Water Temperatures

Place Temperature

Stations

Nearby Weather Stations

Station Location Temp. Windchill Dew Point Humidity Wind Precip. Elev Updated Type